sensor_id;sensor_type;location;lat;lon;timestamp;P1;durP1;ratioP1;P2;durP2;ratioP2
2724;SDS011;1370;52.596;13.112;2023-09-30T00:00:56;7.20;;;2.27;;
2724;SDS011;1370;52.596;13.112;2023-09-30T00:03:21;7.40;;;2.17;;
2724;SDS011;1370;52.596;13.112;2023-09-30T00:05:47;6.00;;;2.90;;
2724;SDS011;1370;52.596;13.112;2023-09-30T00:08:12;5.43;;;2.47;;
2724;SDS011;1370;52.596;13.112;2023-09-30T00:10:37;4.57;;;2.63;;
2724;SDS011;1370;52.596;13.112;2023-09-30T00:13:02;4.40;;;2.80;;
2724;SDS011;1370;52.596;13.112;2023-09-30T00:15:28;5.20;;;3.70;;
2724;SDS011;1370;52.596;13.112;2023-09-30T00:17:53;3.20;;;2.53;;
2724;SDS011;1370;52.596;13.112;2023-09-30T00:20:18;8.00;;;3.10;;
2724;SDS011;1370;52.596;13.112;2023-09-30T00:22:44;8.33;;;2.83;;
2724;SDS011;1370;52.596;13.112;2023-09-30T00:25:09;12.23;;;2.90;;
2724;SDS011;1370;52.596;13.112;2023-09-30T00:27:35;5.83;;;2.30;;
2724;SDS011;1370;52.596;13.112;2023-09-30T00:30:00;7.07;;;3.10;;
2724;SDS011;1370;52.596;13.112;2023-09-30T00:32:26;7.53;;;2.83;;
2724;SDS011;1370;52.596;13.112;2023-09-30T00:34:51;6.50;;;3.83;;
2724;SDS011;1370;52.596;13.112;2023-09-30T00:37:17;4.90;;;3.00;;
2724;SDS011;1370;52.596;13.112;2023-09-30T00:39:42;6.73;;;3.27;;
2724;SDS011;1370;52.596;13.112;2023-09-30T00:42:09;4.60;;;2.60;;
2724;SDS011;1370;52.596;13.112;2023-09-30T00:44:34;4.23;;;2.60;;
2724;SDS011;1370;52.596;13.112;2023-09-30T00:47:00;8.20;;;3.90;;
2724;SDS011;1370;52.596;13.112;2023-09-30T00:49:25;5.70;;;3.37;;
2724;SDS011;1370;52.596;13.112;2023-09-30T00:51:51;9.03;;;3.03;;
2724;SDS011;1370;52.596;13.112;2023-09-30T00:54:17;10.87;;;3.47;;
2724;SDS011;1370;52.596;13.112;2023-09-30T00:56:43;15.00;;;5.67;;
2724;SDS011;1370;52.596;13.112;2023-09-30T00:59:10;5.97;;;4.20;;
2724;SDS011;1370;52.596;13.112;2023-09-30T01:01:36;4.43;;;3.13;;
2724;SDS011;1370;52.596;13.112;2023-09-30T01:04:01;7.83;;;3.60;;
2724;SDS011;1370;52.596;13.112;2023-09-30T01:06:27;14.93;;;3.23;;
2724;SDS011;1370;52.596;13.112;2023-09-30T01:08:52;12.20;;;5.77;;
2724;SDS011;1370;52.596;13.112;2023-09-30T01:11:17;8.07;;;3.70;;
2724;SDS011;1370;52.596;13.112;2023-09-30T01:13:43;6.07;;;3.60;;
2724;SDS011;1370;52.596;13.112;2023-09-30T01:16:09;6.30;;;3.53;;
2724;SDS011;1370;52.596;13.112;2023-09-30T01:18:35;9.57;;;4.70;;
2724;SDS011;1370;52.596;13.112;2023-09-30T01:21:02;11.63;;;3.90;;
2724;SDS011;1370;52.596;13.112;2023-09-30T01:23:30;7.10;;;3.73;;
2724;SDS011;1370;52.596;13.112;2023-09-30T01:25:55;9.60;;;4.07;;
2724;SDS011;1370;52.596;13.112;2023-09-30T01:28:21;5.20;;;4.00;;
2724;SDS011;1370;52.596;13.112;2023-09-30T01:30:46;7.47;;;3.47;;
2724;SDS011;1370;52.596;13.112;2023-09-30T01:33:11;3.90;;;2.63;;
2724;SDS011;1370;52.596;13.112;2023-09-30T01:35:37;7.90;;;4.40;;
2724;SDS011;1370;52.596;13.112;2023-09-30T01:38:02;7.00;;;2.87;;
2724;SDS011;1370;52.596;13.112;2023-09-30T01:40:27;7.00;;;3.13;;
2724;SDS011;1370;52.596;13.112;2023-09-30T01:42:53;8.30;;;3.87;;
2724;SDS011;1370;52.596;13.112;2023-09-30T01:45:18;7.13;;;2.90;;
2724;SDS011;1370;52.596;13.112;2023-09-30T01:47:43;8.93;;;3.27;;
2724;SDS011;1370;52.596;13.112;2023-09-30T01:50:09;5.20;;;2.80;;
2724;SDS011;1370;52.596;13.112;2023-09-30T01:52:35;4.40;;;3.27;;
2724;SDS011;1370;52.596;13.112;2023-09-30T01:55:00;7.73;;;5.40;;
2724;SDS011;1370;52.596;13.112;2023-09-30T01:57:25;5.70;;;3.40;;
2724;SDS011;1370;52.596;13.112;2023-09-30T01:59:51;3.80;;;2.70;;
2724;SDS011;1370;52.596;13.112;2023-09-30T02:02:16;10.93;;;4.37;;
2724;SDS011;1370;52.596;13.112;2023-09-30T02:04:42;9.20;;;3.57;;
2724;SDS011;1370;52.596;13.112;2023-09-30T02:07:08;4.23;;;2.93;;
2724;SDS011;1370;52.596;13.112;2023-09-30T02:09:34;2.93;;;2.23;;
2724;SDS011;1370;52.596;13.112;2023-09-30T02:11:59;7.20;;;3.83;;
2724;SDS011;1370;52.596;13.112;2023-09-30T02:14:24;14.80;;;4.83;;
2724;SDS011;1370;52.596;13.112;2023-09-30T02:16:50;11.63;;;3.60;;
2724;SDS011;1370;52.596;13.112;2023-09-30T02:19:16;4.90;;;3.33;;
2724;SDS011;1370;52.596;13.112;2023-09-30T02:21:41;12.00;;;4.50;;
2724;SDS011;1370;52.596;13.112;2023-09-30T02:24:07;8.30;;;3.60;;
2724;SDS011;1370;52.596;13.112;2023-09-30T02:26:32;6.97;;;3.40;;
2724;SDS011;1370;52.596;13.112;2023-09-30T02:28:58;14.00;;;4.77;;
2724;SDS011;1370;52.596;13.112;2023-09-30T02:31:23;12.43;;;3.57;;
2724;SDS011;1370;52.596;13.112;2023-09-30T02:33:49;5.33;;;3.10;;
2724;SDS011;1370;52.596;13.112;2023-09-30T02:36:15;12.73;;;4.03;;
2724;SDS011;1370;52.596;13.112;2023-09-30T02:38:41;5.23;;;3.50;;
2724;SDS011;1370;52.596;13.112;2023-09-30T02:41:06;10.80;;;4.30;;
2724;SDS011;1370;52.596;13.112;2023-09-30T02:43:32;6.30;;;4.20;;
2724;SDS011;1370;52.596;13.112;2023-09-30T02:45:57;8.03;;;3.77;;
2724;SDS011;1370;52.596;13.112;2023-09-30T02:48:23;9.80;;;3.73;;
2724;SDS011;1370;52.596;13.112;2023-09-30T02:50:48;4.17;;;3.00;;
2724;SDS011;1370;52.596;13.112;2023-09-30T02:53:14;14.83;;;4.43;;
2724;SDS011;1370;52.596;13.112;2023-09-30T02:55:39;8.13;;;4.10;;
2724;SDS011;1370;52.596;13.112;2023-09-30T02:58:06;5.00;;;3.57;;
2724;SDS011;1370;52.596;13.112;2023-09-30T03:00:33;8.70;;;4.00;;
2724;SDS011;1370;52.596;13.112;2023-09-30T03:03:00;10.50;;;3.83;;
2724;SDS011;1370;52.596;13.112;2023-09-30T03:05:26;9.63;;;4.80;;
2724;SDS011;1370;52.596;13.112;2023-09-30T03:07:53;13.77;;;3.93;;
2724;SDS011;1370;52.596;13.112;2023-09-30T03:10:19;9.10;;;3.60;;
2724;SDS011;1370;52.596;13.112;2023-09-30T03:12:55;6.53;;;3.90;;
2724;SDS011;1370;52.596;13.112;2023-09-30T03:15:21;6.50;;;3.17;;
2724;SDS011;1370;52.596;13.112;2023-09-30T03:17:46;11.80;;;3.77;;
2724;SDS011;1370;52.596;13.112;2023-09-30T03:20:12;7.70;;;4.90;;
2724;SDS011;1370;52.596;13.112;2023-09-30T03:22:39;16.73;;;5.33;;
2724;SDS011;1370;52.596;13.112;2023-09-30T03:25:06;9.40;;;3.93;;
2724;SDS011;1370;52.596;13.112;2023-09-30T03:27:32;6.50;;;3.60;;
2724;SDS011;1370;52.596;13.112;2023-09-30T03:29:58;6.00;;;3.63;;
2724;SDS011;1370;52.596;13.112;2023-09-30T03:32:25;12.63;;;4.60;;
2724;SDS011;1370;52.596;13.112;2023-09-30T03:34:52;11.57;;;4.23;;
2724;SDS011;1370;52.596;13.112;2023-09-30T03:37:17;8.50;;;4.27;;
2724;SDS011;1370;52.596;13.112;2023-09-30T03:39:42;7.03;;;4.33;;
2724;SDS011;1370;52.596;13.112;2023-09-30T03:42:08;8.90;;;3.50;;
2724;SDS011;1370;52.596;13.112;2023-09-30T03:44:36;10.10;;;3.57;;
2724;SDS011;1370;52.596;13.112;2023-09-30T03:47:02;11.90;;;5.30;;
2724;SDS011;1370;52.596;13.112;2023-09-30T03:49:28;9.40;;;4.83;;
2724;SDS011;1370;52.596;13.112;2023-09-30T03:51:53;8.07;;;3.73;;
2724;SDS011;1370;52.596;13.112;2023-09-30T03:54:19;10.30;;;3.20;;
2724;SDS011;1370;52.596;13.112;2023-09-30T03:56:45;6.43;;;3.70;;
2724;SDS011;1370;52.596;13.112;2023-09-30T03:59:11;10.73;;;3.43;;
2724;SDS011;1370;52.596;13.112;2023-09-30T04:01:36;13.60;;;4.70;;
2724;SDS011;1370;52.596;13.112;2023-09-30T04:04:05;9.17;;;4.27;;
2724;SDS011;1370;52.596;13.112;2023-09-30T04:06:34;14.00;;;5.17;;
2724;SDS011;1370;52.596;13.112;2023-09-30T04:09:03;11.93;;;3.60;;
2724;SDS011;1370;52.596;13.112;2023-09-30T04:11:28;9.63;;;4.00;;
2724;SDS011;1370;52.596;13.112;2023-09-30T04:13:54;9.40;;;4.10;;
2724;SDS011;1370;52.596;13.112;2023-09-30T04:16:20;4.17;;;3.00;;
2724;SDS011;1370;52.596;13.112;2023-09-30T04:18:45;13.80;;;4.13;;
2724;SDS011;1370;52.596;13.112;2023-09-30T04:21:11;6.83;;;4.80;;
2724;SDS011;1370;52.596;13.112;2023-09-30T04:23:36;9.70;;;3.90;;
2724;SDS011;1370;52.596;13.112;2023-09-30T04:26:02;7.57;;;5.33;;
2724;SDS011;1370;52.596;13.112;2023-09-30T04:28:28;8.90;;;3.90;;
2724;SDS011;1370;52.596;13.112;2023-09-30T04:30:53;10.63;;;4.13;;
2724;SDS011;1370;52.596;13.112;2023-09-30T04:33:19;7.07;;;3.80;;
2724;SDS011;1370;52.596;13.112;2023-09-30T04:35:45;8.80;;;4.37;;
2724;SDS011;1370;52.596;13.112;2023-09-30T04:38:10;8.23;;;4.73;;
2724;SDS011;1370;52.596;13.112;2023-09-30T04:40:36;11.23;;;4.07;;
2724;SDS011;1370;52.596;13.112;2023-09-30T04:43:02;9.23;;;3.60;;
2724;SDS011;1370;52.596;13.112;2023-09-30T04:45:27;4.90;;;4.40;;
2724;SDS011;1370;52.596;13.112;2023-09-30T04:47:53;9.90;;;4.70;;
2724;SDS011;1370;52.596;13.112;2023-09-30T04:50:21;11.47;;;4.30;;
2724;SDS011;1370;52.596;13.112;2023-09-30T04:52:46;10.90;;;4.27;;
2724;SDS011;1370;52.596;13.112;2023-09-30T04:55:12;5.23;;;4.77;;
2724;SDS011;1370;52.596;13.112;2023-09-30T04:57:40;8.43;;;4.50;;
2724;SDS011;1370;52.596;13.112;2023-09-30T05:00:07;9.73;;;4.10;;
2724;SDS011;1370;52.596;13.112;2023-09-30T05:02:36;4.90;;;4.00;;
2724;SDS011;1370;52.596;13.112;2023-09-30T05:05:01;5.83;;;3.13;;
2724;SDS011;1370;52.596;13.112;2023-09-30T05:07:27;6.10;;;4.33;;
2724;SDS011;1370;52.596;13.112;2023-09-30T05:09:53;7.23;;;4.53;;
2724;SDS011;1370;52.596;13.112;2023-09-30T05:12:19;7.03;;;3.23;;
2724;SDS011;1370;52.596;13.112;2023-09-30T05:14:45;4.77;;;4.00;;
2724;SDS011;1370;52.596;13.112;2023-09-30T05:17:10;4.27;;;3.60;;
2724;SDS011;1370;52.596;13.112;2023-09-30T05:19:37;7.57;;;4.07;;
2724;SDS011;1370;52.596;13.112;2023-09-30T05:22:02;9.03;;;3.83;;
2724;SDS011;1370;52.596;13.112;2023-09-30T05:24:28;7.37;;;4.30;;
2724;SDS011;1370;52.596;13.112;2023-09-30T05:26:54;5.50;;;4.13;;
2724;SDS011;1370;52.596;13.112;2023-09-30T05:29:19;9.50;;;4.30;;
2724;SDS011;1370;52.596;13.112;2023-09-30T05:31:45;8.03;;;4.77;;
2724;SDS011;1370;52.596;13.112;2023-09-30T05:34:10;10.70;;;4.07;;
2724;SDS011;1370;52.596;13.112;2023-09-30T05:36:36;8.13;;;4.17;;
2724;SDS011;1370;52.596;13.112;2023-09-30T05:39:01;8.53;;;4.83;;
2724;SDS011;1370;52.596;13.112;2023-09-30T05:41:28;6.63;;;3.60;;
2724;SDS011;1370;52.596;13.112;2023-09-30T05:43:53;5.13;;;4.67;;
2724;SDS011;1370;52.596;13.112;2023-09-30T05:46:18;7.47;;;3.47;;
2724;SDS011;1370;52.596;13.112;2023-09-30T05:48:43;10.33;;;4.50;;
2724;SDS011;1370;52.596;13.112;2023-09-30T05:51:09;6.87;;;4.07;;
2724;SDS011;1370;52.596;13.112;2023-09-30T05:53:34;6.90;;;3.90;;
2724;SDS011;1370;52.596;13.112;2023-09-30T05:56:01;4.40;;;4.00;;
2724;SDS011;1370;52.596;13.112;2023-09-30T05:58:26;11.30;;;5.70;;
2724;SDS011;1370;52.596;13.112;2023-09-30T06:00:52;17.37;;;5.67;;
2724;SDS011;1370;52.596;13.112;2023-09-30T06:03:18;9.33;;;4.70;;
2724;SDS011;1370;52.596;13.112;2023-09-30T06:05:44;9.50;;;5.17;;
2724;SDS011;1370;52.596;13.112;2023-09-30T06:08:09;12.97;;;4.93;;
2724;SDS011;1370;52.596;13.112;2023-09-30T06:10:41;16.80;;;5.20;;
2724;SDS011;1370;52.596;13.112;2023-09-30T06:13:11;11.33;;;4.33;;
2724;SDS011;1370;52.596;13.112;2023-09-30T06:15:37;9.27;;;5.20;;
2724;SDS011;1370;52.596;13.112;2023-09-30T06:18:06;10.07;;;5.57;;
2724;SDS011;1370;52.596;13.112;2023-09-30T06:20:32;8.50;;;4.87;;
2724;SDS011;1370;52.596;13.112;2023-09-30T06:22:58;8.50;;;5.23;;
2724;SDS011;1370;52.596;13.112;2023-09-30T06:25:25;15.43;;;4.80;;
2724;SDS011;1370;52.596;13.112;2023-09-30T06:27:50;9.17;;;4.60;;
2724;SDS011;1370;52.596;13.112;2023-09-30T06:30:16;10.20;;;4.30;;
2724;SDS011;1370;52.596;13.112;2023-09-30T06:32:42;13.83;;;4.50;;
2724;SDS011;1370;52.596;13.112;2023-09-30T06:35:08;10.33;;;4.70;;
2724;SDS011;1370;52.596;13.112;2023-09-30T06:37:35;11.60;;;4.93;;
2724;SDS011;1370;52.596;13.112;2023-09-30T06:40:02;13.17;;;6.17;;
2724;SDS011;1370;52.596;13.112;2023-09-30T06:42:29;7.73;;;4.43;;
2724;SDS011;1370;52.596;13.112;2023-09-30T06:44:54;12.33;;;4.63;;
2724;SDS011;1370;52.596;13.112;2023-09-30T06:47:19;11.80;;;4.40;;
2724;SDS011;1370;52.596;13.112;2023-09-30T06:49:45;7.53;;;4.70;;
2724;SDS011;1370;52.596;13.112;2023-09-30T06:52:11;6.90;;;4.60;;
2724;SDS011;1370;52.596;13.112;2023-09-30T06:54:36;10.10;;;4.43;;
2724;SDS011;1370;52.596;13.112;2023-09-30T06:57:02;12.10;;;5.13;;
2724;SDS011;1370;52.596;13.112;2023-09-30T06:59:27;5.37;;;3.93;;
2724;SDS011;1370;52.596;13.112;2023-09-30T07:01:52;7.63;;;4.20;;
2724;SDS011;1370;52.596;13.112;2023-09-30T07:04:18;12.13;;;4.70;;
2724;SDS011;1370;52.596;13.112;2023-09-30T07:06:43;15.93;;;5.80;;
2724;SDS011;1370;52.596;13.112;2023-09-30T07:09:08;7.20;;;4.63;;
2724;SDS011;1370;52.596;13.112;2023-09-30T07:11:35;12.53;;;4.67;;
2724;SDS011;1370;52.596;13.112;2023-09-30T07:14:00;11.23;;;4.97;;
2724;SDS011;1370;52.596;13.112;2023-09-30T07:16:26;5.23;;;3.90;;
2724;SDS011;1370;52.596;13.112;2023-09-30T07:18:51;10.80;;;5.70;;
2724;SDS011;1370;52.596;13.112;2023-09-30T07:21:16;17.50;;;5.23;;
2724;SDS011;1370;52.596;13.112;2023-09-30T07:23:42;8.43;;;4.70;;
2724;SDS011;1370;52.596;13.112;2023-09-30T07:26:07;19.07;;;5.30;;
2724;SDS011;1370;52.596;13.112;2023-09-30T07:28:33;10.30;;;4.20;;
2724;SDS011;1370;52.596;13.112;2023-09-30T07:30:58;15.43;;;5.30;;
2724;SDS011;1370;52.596;13.112;2023-09-30T07:33:24;8.40;;;4.03;;
2724;SDS011;1370;52.596;13.112;2023-09-30T07:35:49;10.87;;;4.80;;
2724;SDS011;1370;52.596;13.112;2023-09-30T07:38:14;11.53;;;4.63;;
2724;SDS011;1370;52.596;13.112;2023-09-30T07:40:40;16.37;;;4.87;;
2724;SDS011;1370;52.596;13.112;2023-09-30T07:43:05;9.30;;;5.13;;
2724;SDS011;1370;52.596;13.112;2023-09-30T07:45:30;11.13;;;5.30;;
2724;SDS011;1370;52.596;13.112;2023-09-30T07:47:56;9.37;;;3.90;;
2724;SDS011;1370;52.596;13.112;2023-09-30T07:50:23;6.13;;;3.60;;
2724;SDS011;1370;52.596;13.112;2023-09-30T07:52:48;9.10;;;4.50;;
2724;SDS011;1370;52.596;13.112;2023-09-30T07:55:14;16.33;;;6.10;;
2724;SDS011;1370;52.596;13.112;2023-09-30T07:57:40;15.40;;;6.30;;
2724;SDS011;1370;52.596;13.112;2023-09-30T08:00:07;13.47;;;5.63;;
2724;SDS011;1370;52.596;13.112;2023-09-30T08:02:34;9.30;;;4.60;;
2724;SDS011;1370;52.596;13.112;2023-09-30T08:05:01;7.07;;;3.23;;
2724;SDS011;1370;52.596;13.112;2023-09-30T08:07:26;9.93;;;4.90;;
2724;SDS011;1370;52.596;13.112;2023-09-30T08:09:53;21.37;;;4.83;;
2724;SDS011;1370;52.596;13.112;2023-09-30T08:12:18;10.30;;;4.77;;
2724;SDS011;1370;52.596;13.112;2023-09-30T08:14:44;22.23;;;5.87;;
2724;SDS011;1370;52.596;13.112;2023-09-30T08:17:10;7.63;;;4.20;;
2724;SDS011;1370;52.596;13.112;2023-09-30T08:19:36;13.17;;;4.20;;
2724;SDS011;1370;52.596;13.112;2023-09-30T08:22:01;18.07;;;7.17;;
2724;SDS011;1370;52.596;13.112;2023-09-30T08:24:28;14.57;;;6.23;;
2724;SDS011;1370;52.596;13.112;2023-09-30T08:26:53;11.70;;;4.60;;
2724;SDS011;1370;52.596;13.112;2023-09-30T08:29:20;10.27;;;4.77;;
2724;SDS011;1370;52.596;13.112;2023-09-30T08:31:46;8.33;;;4.80;;
2724;SDS011;1370;52.596;13.112;2023-09-30T08:34:11;11.30;;;4.60;;
2724;SDS011;1370;52.596;13.112;2023-09-30T08:36:38;14.57;;;5.57;;
2724;SDS011;1370;52.596;13.112;2023-09-30T08:39:03;10.00;;;4.50;;
2724;SDS011;1370;52.596;13.112;2023-09-30T08:41:33;13.23;;;6.80;;
2724;SDS011;1370;52.596;13.112;2023-09-30T08:44:03;6.87;;;4.37;;
2724;SDS011;1370;52.596;13.112;2023-09-30T08:46:32;13.83;;;4.50;;
2724;SDS011;1370;52.596;13.112;2023-09-30T08:49:02;7.73;;;5.00;;
2724;SDS011;1370;52.596;13.112;2023-09-30T08:51:28;11.37;;;4.80;;
2724;SDS011;1370;52.596;13.112;2023-09-30T08:53:54;8.27;;;4.70;;
2724;SDS011;1370;52.596;13.112;2023-09-30T08:56:21;7.17;;;4.00;;
2724;SDS011;1370;52.596;13.112;2023-09-30T08:58:49;11.60;;;4.87;;
2724;SDS011;1370;52.596;13.112;2023-09-30T09:01:15;11.20;;;4.60;;
2724;SDS011;1370;52.596;13.112;2023-09-30T09:03:41;11.90;;;5.23;;
2724;SDS011;1370;52.596;13.112;2023-09-30T09:06:06;10.63;;;4.20;;
2724;SDS011;1370;52.596;13.112;2023-09-30T09:08:32;10.57;;;4.63;;
2724;SDS011;1370;52.596;13.112;2023-09-30T09:10:58;11.23;;;4.20;;
2724;SDS011;1370;52.596;13.112;2023-09-30T09:13:25;15.07;;;4.60;;
2724;SDS011;1370;52.596;13.112;2023-09-30T09:16:09;9.60;;;4.97;;
2724;SDS011;1370;52.596;13.112;2023-09-30T09:18:35;10.10;;;3.77;;
2724;SDS011;1370;52.596;13.112;2023-09-30T09:23:42;6.77;;;3.67;;
2724;SDS011;1370;52.596;13.112;2023-09-30T09:26:22;13.07;;;4.20;;
2724;SDS011;1370;52.596;13.112;2023-09-30T09:28:49;12.70;;;4.03;;
2724;SDS011;1370;52.596;13.112;2023-09-30T09:31:21;8.40;;;4.37;;
2724;SDS011;1370;52.596;13.112;2023-09-30T09:33:47;7.63;;;3.70;;
2724;SDS011;1370;52.596;13.112;2023-09-30T09:36:13;10.23;;;4.20;;
2724;SDS011;1370;52.596;13.112;2023-09-30T09:38:49;12.00;;;4.40;;
2724;SDS011;1370;52.596;13.112;2023-09-30T09:41:18;6.33;;;3.20;;
2724;SDS011;1370;52.596;13.112;2023-09-30T09:43:43;6.90;;;3.50;;
2724;SDS011;1370;52.596;13.112;2023-09-30T09:46:08;12.23;;;3.23;;
2724;SDS011;1370;52.596;13.112;2023-09-30T09:48:37;10.00;;;3.20;;
2724;SDS011;1370;52.596;13.112;2023-09-30T09:51:06;10.17;;;4.47;;
2724;SDS011;1370;52.596;13.112;2023-09-30T09:53:36;5.83;;;3.40;;
2724;SDS011;1370;52.596;13.112;2023-09-30T09:56:02;7.60;;;3.10;;
2724;SDS011;1370;52.596;13.112;2023-09-30T09:58:28;6.33;;;3.50;;
2724;SDS011;1370;52.596;13.112;2023-09-30T10:00:58;9.30;;;4.20;;
2724;SDS011;1370;52.596;13.112;2023-09-30T10:03:25;11.13;;;4.03;;
2724;SDS011;1370;52.596;13.112;2023-09-30T10:05:51;6.30;;;5.13;;
2724;SDS011;1370;52.596;13.112;2023-09-30T10:08:17;10.07;;;4.20;;
2724;SDS011;1370;52.596;13.112;2023-09-30T10:10:45;16.20;;;4.90;;
2724;SDS011;1370;52.596;13.112;2023-09-30T10:19:07;10.63;;;4.00;;
2724;SDS011;1370;52.596;13.112;2023-09-30T10:21:36;8.63;;;3.17;;
2724;SDS011;1370;52.596;13.112;2023-09-30T10:29:57;6.03;;;3.20;;
2724;SDS011;1370;52.596;13.112;2023-09-30T10:35:20;8.60;;;3.80;;
2724;SDS011;1370;52.596;13.112;2023-09-30T10:37:46;10.03;;;3.57;;
2724;SDS011;1370;52.596;13.112;2023-09-30T10:40:28;6.43;;;3.10;;
2724;SDS011;1370;52.596;13.112;2023-09-30T10:42:54;7.87;;;4.20;;
2724;SDS011;1370;52.596;13.112;2023-09-30T10:50:59;6.90;;;3.10;;
2724;SDS011;1370;52.596;13.112;2023-09-30T10:53:52;7.07;;;3.87;;
2724;SDS011;1370;52.596;13.112;2023-09-30T10:56:21;13.40;;;3.40;;
2724;SDS011;1370;52.596;13.112;2023-09-30T10:58:48;8.23;;;3.80;;
2724;SDS011;1370;52.596;13.112;2023-09-30T11:01:18;9.03;;;2.90;;
2724;SDS011;1370;52.596;13.112;2023-09-30T11:03:44;4.57;;;2.90;;
2724;SDS011;1370;52.596;13.112;2023-09-30T11:06:11;8.10;;;3.70;;
2724;SDS011;1370;52.596;13.112;2023-09-30T11:08:40;11.30;;;4.07;;
2724;SDS011;1370;52.596;13.112;2023-09-30T11:11:10;6.13;;;2.50;;
2724;SDS011;1370;52.596;13.112;2023-09-30T11:13:36;7.00;;;3.33;;
2724;SDS011;1370;52.596;13.112;2023-09-30T11:16:02;5.77;;;2.67;;
2724;SDS011;1370;52.596;13.112;2023-09-30T11:18:29;4.80;;;2.80;;
2724;SDS011;1370;52.596;13.112;2023-09-30T11:21:06;4.67;;;3.57;;
2724;SDS011;1370;52.596;13.112;2023-09-30T11:23:33;5.17;;;2.50;;
2724;SDS011;1370;52.596;13.112;2023-09-30T11:26:02;6.90;;;2.50;;
2724;SDS011;1370;52.596;13.112;2023-09-30T11:28:35;11.17;;;2.57;;
2724;SDS011;1370;52.596;13.112;2023-09-30T11:31:01;7.20;;;2.73;;
2724;SDS011;1370;52.596;13.112;2023-09-30T11:33:27;10.50;;;3.90;;
2724;SDS011;1370;52.596;13.112;2023-09-30T11:35:57;5.83;;;2.20;;
2724;SDS011;1370;52.596;13.112;2023-09-30T11:38:26;5.90;;;2.30;;
2724;SDS011;1370;52.596;13.112;2023-09-30T11:41:02;8.60;;;3.13;;
2724;SDS011;1370;52.596;13.112;2023-09-30T11:43:29;5.70;;;2.10;;
2724;SDS011;1370;52.596;13.112;2023-09-30T11:46:11;6.23;;;2.13;;
2724;SDS011;1370;52.596;13.112;2023-09-30T11:48:38;13.23;;;2.93;;
2724;SDS011;1370;52.596;13.112;2023-09-30T11:51:05;7.67;;;2.47;;
2724;SDS011;1370;52.596;13.112;2023-09-30T11:53:31;5.40;;;2.00;;
2724;SDS011;1370;52.596;13.112;2023-09-30T11:55:58;4.27;;;2.23;;
2724;SDS011;1370;52.596;13.112;2023-09-30T11:58:27;7.20;;;2.50;;
2724;SDS011;1370;52.596;13.112;2023-09-30T12:01:00;5.73;;;2.57;;
2724;SDS011;1370;52.596;13.112;2023-09-30T12:03:26;8.93;;;3.20;;
2724;SDS011;1370;52.596;13.112;2023-09-30T12:05:52;6.53;;;2.50;;
2724;SDS011;1370;52.596;13.112;2023-09-30T12:08:23;8.23;;;3.00;;
2724;SDS011;1370;52.596;13.112;2023-09-30T12:10:49;11.93;;;2.80;;
2724;SDS011;1370;52.596;13.112;2023-09-30T12:13:15;4.23;;;2.00;;
2724;SDS011;1370;52.596;13.112;2023-09-30T12:15:40;6.50;;;3.40;;
2724;SDS011;1370;52.596;13.112;2023-09-30T12:18:06;3.03;;;2.60;;
2724;SDS011;1370;52.596;13.112;2023-09-30T12:20:31;8.70;;;2.60;;
2724;SDS011;1370;52.596;13.112;2023-09-30T12:22:57;6.33;;;2.43;;
2724;SDS011;1370;52.596;13.112;2023-09-30T12:25:22;7.50;;;2.77;;
2724;SDS011;1370;52.596;13.112;2023-09-30T12:27:49;3.13;;;1.57;;
2724;SDS011;1370;52.596;13.112;2023-09-30T12:30:14;3.20;;;2.00;;
2724;SDS011;1370;52.596;13.112;2023-09-30T12:32:40;4.90;;;1.97;;
2724;SDS011;1370;52.596;13.112;2023-09-30T12:35:06;3.33;;;2.00;;
2724;SDS011;1370;52.596;13.112;2023-09-30T12:37:31;5.80;;;2.70;;
2724;SDS011;1370;52.596;13.112;2023-09-30T12:39:57;3.53;;;1.90;;
2724;SDS011;1370;52.596;13.112;2023-09-30T12:42:23;4.63;;;2.10;;
2724;SDS011;1370;52.596;13.112;2023-09-30T12:44:48;8.00;;;2.63;;
2724;SDS011;1370;52.596;13.112;2023-09-30T12:47:13;2.67;;;2.03;;
2724;SDS011;1370;52.596;13.112;2023-09-30T12:49:39;4.20;;;2.40;;
2724;SDS011;1370;52.596;13.112;2023-09-30T12:52:04;5.00;;;1.83;;
2724;SDS011;1370;52.596;13.112;2023-09-30T12:54:29;2.47;;;1.77;;
2724;SDS011;1370;52.596;13.112;2023-09-30T12:56:54;9.97;;;2.10;;
2724;SDS011;1370;52.596;13.112;2023-09-30T12:59:20;8.83;;;2.67;;
2724;SDS011;1370;52.596;13.112;2023-09-30T13:01:49;4.13;;;2.03;;
2724;SDS011;1370;52.596;13.112;2023-09-30T13:04:14;7.00;;;3.70;;
2724;SDS011;1370;52.596;13.112;2023-09-30T13:06:40;8.63;;;1.83;;
2724;SDS011;1370;52.596;13.112;2023-09-30T13:09:05;7.17;;;2.50;;
2724;SDS011;1370;52.596;13.112;2023-09-30T13:11:33;9.27;;;2.90;;
2724;SDS011;1370;52.596;13.112;2023-09-30T13:13:59;4.37;;;2.30;;
2724;SDS011;1370;52.596;13.112;2023-09-30T13:16:24;5.40;;;1.67;;
2724;SDS011;1370;52.596;13.112;2023-09-30T13:18:49;2.27;;;1.77;;
2724;SDS011;1370;52.596;13.112;2023-09-30T13:21:17;8.87;;;2.10;;
2724;SDS011;1370;52.596;13.112;2023-09-30T13:23:43;4.50;;;1.70;;
2724;SDS011;1370;52.596;13.112;2023-09-30T13:26:08;5.83;;;2.70;;
2724;SDS011;1370;52.596;13.112;2023-09-30T13:28:33;8.73;;;2.00;;
2724;SDS011;1370;52.596;13.112;2023-09-30T13:30:59;4.37;;;2.23;;
2724;SDS011;1370;52.596;13.112;2023-09-30T13:33:24;6.60;;;2.03;;
2724;SDS011;1370;52.596;13.112;2023-09-30T13:35:49;6.23;;;2.80;;
2724;SDS011;1370;52.596;13.112;2023-09-30T13:38:15;3.17;;;2.03;;
2724;SDS011;1370;52.596;13.112;2023-09-30T13:40:41;5.93;;;2.40;;
2724;SDS011;1370;52.596;13.112;2023-09-30T13:43:06;7.60;;;2.07;;
2724;SDS011;1370;52.596;13.112;2023-09-30T13:45:31;3.93;;;1.37;;
2724;SDS011;1370;52.596;13.112;2023-09-30T13:47:57;4.63;;;2.43;;
2724;SDS011;1370;52.596;13.112;2023-09-30T13:50:22;13.67;;;2.50;;
2724;SDS011;1370;52.596;13.112;2023-09-30T13:52:47;10.90;;;1.90;;
2724;SDS011;1370;52.596;13.112;2023-09-30T13:55:13;4.10;;;1.47;;
2724;SDS011;1370;52.596;13.112;2023-09-30T13:57:44;4.60;;;1.60;;
2724;SDS011;1370;52.596;13.112;2023-09-30T14:00:11;4.33;;;2.00;;
2724;SDS011;1370;52.596;13.112;2023-09-30T14:02:36;3.43;;;2.20;;
2724;SDS011;1370;52.596;13.112;2023-09-30T14:05:02;4.97;;;1.67;;
2724;SDS011;1370;52.596;13.112;2023-09-30T14:07:29;3.00;;;2.27;;
2724;SDS011;1370;52.596;13.112;2023-09-30T14:09:54;8.53;;;2.20;;
2724;SDS011;1370;52.596;13.112;2023-09-30T14:12:20;5.23;;;2.63;;
2724;SDS011;1370;52.596;13.112;2023-09-30T14:14:45;5.30;;;2.43;;
2724;SDS011;1370;52.596;13.112;2023-09-30T14:17:10;3.90;;;1.80;;
2724;SDS011;1370;52.596;13.112;2023-09-30T14:19:36;4.27;;;1.63;;
2724;SDS011;1370;52.596;13.112;2023-09-30T14:22:03;2.97;;;1.60;;
2724;SDS011;1370;52.596;13.112;2023-09-30T14:24:30;3.20;;;1.63;;
2724;SDS011;1370;52.596;13.112;2023-09-30T14:26:55;2.87;;;1.20;;
2724;SDS011;1370;52.596;13.112;2023-09-30T14:29:20;8.23;;;2.07;;
2724;SDS011;1370;52.596;13.112;2023-09-30T14:31:46;6.43;;;1.80;;
2724;SDS011;1370;52.596;13.112;2023-09-30T14:34:11;6.10;;;2.07;;
2724;SDS011;1370;52.596;13.112;2023-09-30T14:36:37;4.53;;;1.77;;
2724;SDS011;1370;52.596;13.112;2023-09-30T14:39:02;9.23;;;2.70;;
2724;SDS011;1370;52.596;13.112;2023-09-30T14:41:29;6.13;;;2.43;;
2724;SDS011;1370;52.596;13.112;2023-09-30T14:43:55;4.73;;;2.93;;
2724;SDS011;1370;52.596;13.112;2023-09-30T14:46:20;5.13;;;1.87;;
2724;SDS011;1370;52.596;13.112;2023-09-30T14:48:45;4.33;;;1.77;;
2724;SDS011;1370;52.596;13.112;2023-09-30T14:51:11;6.97;;;1.70;;
2724;SDS011;1370;52.596;13.112;2023-09-30T14:53:37;4.90;;;2.00;;
2724;SDS011;1370;52.596;13.112;2023-09-30T14:56:02;3.57;;;2.50;;
2724;SDS011;1370;52.596;13.112;2023-09-30T14:58:27;5.23;;;2.40;;
2724;SDS011;1370;52.596;13.112;2023-09-30T15:00:53;3.83;;;1.93;;
2724;SDS011;1370;52.596;13.112;2023-09-30T15:03:18;6.37;;;2.10;;
2724;SDS011;1370;52.596;13.112;2023-09-30T15:05:46;7.03;;;2.03;;
2724;SDS011;1370;52.596;13.112;2023-09-30T15:08:11;8.63;;;5.10;;
2724;SDS011;1370;52.596;13.112;2023-09-30T15:10:37;7.70;;;2.20;;
2724;SDS011;1370;52.596;13.112;2023-09-30T15:13:02;9.70;;;2.07;;
2724;SDS011;1370;52.596;13.112;2023-09-30T15:15:29;2.07;;;1.57;;